Time;durP1;ratioP1;P1;durP2;ratioP2;P2;SDS_P1;SDS_P2;PMS_P1;PMS_P2;Temp;Humidity;BMP_temperature;BMP_pressure;BME280_temperature;BME280_humidity;BME280_pressure;Samples;Min_cycle;Max_cycle;Signal;HPM_P1;HPM_P2
2020/12/07 00:00:24;;;;;;;13.48;8.18;;;2.20;99.90;;;;;;6032790;23;20019;-87
2020/12/07 00:03:42;;;;;;;10.20;7.60;;;2.30;99.90;;;;;;6076357;23;20024;-88
2020/12/07 00:10:43;;;;;;;13.10;9.27;;;2.30;99.90;;;;;;6134089;23;20033;-87
2020/12/07 00:16:49;;;;;;;9.35;6.85;;;2.30;99.90;;;;;;6018532;23;20026;-85
2020/12/07 00:20:19;;;;;;;9.38;6.95;;;2.40;99.90;;;;;;6092852;23;20010;-85
2020/12/07 00:24:04;;;;;;;8.95;6.88;;;2.40;99.90;;;;;;6108203;23;20018;-85
2020/12/07 00:27:27;;;;;;;10.20;7.75;;;2.40;99.90;;;;;;6131439;23;20085;-86
2020/12/07 00:37:46;;;;;;;8.30;6.07;;;2.40;99.90;;;;;;6029505;23;20220;-86
2020/12/07 00:40:50;;;;;;;8.82;5.95;;;2.40;99.90;;;;;;6030043;23;20459;-86
2020/12/07 00:44:36;;;;;;;8.70;6.95;;;2.40;99.90;;;;;;6084319;23;20049;-85
2020/12/07 00:47:47;;;;;;;8.40;6.60;;;2.50;99.90;;;;;;6039135;23;20047;-85
2020/12/07 00:53:47;;;;;;;7.90;6.03;;;2.50;99.90;;;;;;6159096;23;20054;-81
2020/12/07 00:56:13;;;;;;;9.00;6.57;;;2.50;99.90;;;;;;6133018;23;20010;-82
2020/12/07 00:58:39;;;;;;;8.30;6.95;;;2.50;99.90;;;;;;6133845;23;20012;-80
2020/12/07 01:01:04;;;;;;;10.10;7.50;;;2.40;99.90;;;;;;6167304;23;20013;-80
2020/12/07 01:03:30;;;;;;;8.30;6.15;;;2.40;99.90;;;;;;6166341;23;20008;-81
2020/12/07 01:05:56;;;;;;;6.55;5.32;;;2.40;99.90;;;;;;6166676;23;20009;-80
2020/12/07 01:08:22;;;;;;;7.38;5.55;;;2.50;99.90;;;;;;6137551;23;20048;-81
2020/12/07 01:10:54;;;;;;;8.05;6.32;;;2.50;99.90;;;;;;6158973;23;20009;-81
2020/12/07 01:13:20;;;;;;;7.70;6.07;;;2.50;99.90;;;;;;6159981;23;19998;-81
2020/12/07 01:15:46;;;;;;;10.05;7.20;;;2.40;99.90;;;;;;6135421;23;20015;-81
2020/12/07 01:18:11;;;;;;;9.93;6.60;;;2.40;99.90;;;;;;6132976;23;20033;-82
2020/12/07 01:20:37;;;;;;;8.93;7.40;;;2.40;99.90;;;;;;6158424;23;20006;-83
2020/12/07 01:23:03;;;;;;;7.90;5.97;;;2.40;99.90;;;;;;6158986;23;20421;-82
2020/12/07 01:25:28;;;;;;;7.78;5.95;;;2.40;99.90;;;;;;6158763;23;20005;-82
2020/12/07 01:27:54;;;;;;;6.80;5.20;;;2.40;99.90;;;;;;6131395;23;20005;-81
2020/12/07 01:30:19;;;;;;;8.18;6.57;;;2.40;99.90;;;;;;6158035;23;20009;-82
2020/12/07 01:32:45;;;;;;;7.10;5.80;;;2.50;99.90;;;;;;6131657;23;20006;-81
2020/12/07 01:35:11;;;;;;;5.13;4.60;;;2.50;99.90;;;;;;6157263;23;20049;-81
2020/12/07 01:37:37;;;;;;;7.03;5.78;;;2.50;99.90;;;;;;6157562;23;20036;-81
2020/12/07 01:40:03;;;;;;;6.97;5.60;;;2.50;99.90;;;;;;6157796;23;20052;-82
2020/12/07 01:42:28;;;;;;;7.10;5.90;;;2.50;99.90;;;;;;6157829;23;19997;-81
2020/12/07 01:44:54;;;;;;;8.30;6.63;;;2.50;99.90;;;;;;6158101;23;20009;-81
2020/12/07 01:47:23;;;;;;;8.65;6.97;;;2.50;99.90;;;;;;6157608;23;20334;-82
2020/12/07 01:49:50;;;;;;;8.93;6.38;;;2.50;99.90;;;;;;6131638;23;20342;-81
2020/12/07 01:52:19;;;;;;;7.00;6.18;;;2.50;99.90;;;;;;6158058;23;20001;-81
2020/12/07 01:54:46;;;;;;;5.93;4.93;;;2.50;99.90;;;;;;6158389;23;20016;-81
2020/12/07 01:57:12;;;;;;;5.38;4.88;;;2.50;99.90;;;;;;6131667;23;20017;-81
2020/12/07 01:59:38;;;;;;;5.85;5.20;;;2.50;99.90;;;;;;6158005;23;20010;-82
2020/12/07 02:02:04;;;;;;;6.32;5.22;;;2.60;99.90;;;;;;6158172;23;20084;-81
2020/12/07 02:04:30;;;;;;;7.18;5.85;;;2.60;99.90;;;;;;6157726;23;20073;-81
2020/12/07 02:06:56;;;;;;;5.50;5.00;;;2.60;99.90;;;;;;6157449;23;19997;-81
2020/12/07 02:09:31;;;;;;;6.32;5.70;;;2.60;99.90;;;;;;6158034;23;19998;-81
2020/12/07 02:11:57;;;;;;;7.38;5.72;;;2.60;99.90;;;;;;6157659;23;20426;-82
2020/12/07 02:14:22;;;;;;;6.13;5.53;;;2.50;99.90;;;;;;6131201;23;20145;-82
2020/12/07 02:16:48;;;;;;;5.35;4.85;;;2.50;99.90;;;;;;6157313;23;20414;-79
2020/12/07 02:19:14;;;;;;;5.80;5.15;;;2.50;99.90;;;;;;6157273;23;20009;-82
2020/12/07 02:21:40;;;;;;;5.32;4.75;;;2.50;99.90;;;;;;6132287;23;20484;-82
2020/12/07 02:24:06;;;;;;;5.20;4.70;;;2.50;99.90;;;;;;6157504;23;20008;-82
2020/12/07 02:26:31;;;;;;;5.50;5.00;;;2.50;99.90;;;;;;6131856;23;20382;-82
2020/12/07 02:28:57;;;;;;;4.53;4.10;;;2.60;99.90;;;;;;6162019;23;19997;-83
2020/12/07 02:31:23;;;;;;;5.20;4.70;;;2.60;99.90;;;;;;6168942;23;20005;-85
2020/12/07 02:33:48;;;;;;;5.90;5.05;;;2.60;99.90;;;;;;6179537;23;20028;-86
2020/12/07 02:36:14;;;;;;;5.47;4.75;;;2.60;99.90;;;;;;6169669;23;20023;-82
2020/12/07 02:39:07;;;;;;;4.65;4.25;;;2.60;99.90;;;;;;6157216;23;20057;-82
2020/12/07 02:41:36;;;;;;;5.35;4.57;;;2.60;99.90;;;;;;6155903;23;20025;-79
2020/12/07 02:44:01;;;;;;;5.15;4.38;;;2.60;99.90;;;;;;6156403;23;20087;-80
2020/12/07 02:46:29;;;;;;;5.03;4.50;;;2.60;99.90;;;;;;6156619;23;20070;-84
2020/12/07 02:48:54;;;;;;;4.60;4.20;;;2.60;99.90;;;;;;6156461;23;19994;-80
2020/12/07 02:51:20;;;;;;;4.10;3.70;;;2.50;99.90;;;;;;6157604;23;20021;-79
2020/12/07 02:53:45;;;;;;;5.00;4.50;;;2.50;99.90;;;;;;6158414;23;20005;-80
2020/12/07 02:56:11;;;;;;;4.82;4.32;;;2.50;99.90;;;;;;6158026;23;19997;-82
2020/12/07 02:58:37;;;;;;;5.25;4.53;;;2.40;99.90;;;;;;6157716;23;20336;-82
2020/12/07 03:01:02;;;;;;;5.15;4.65;;;2.40;99.90;;;;;;6132211;23;20014;-80
2020/12/07 03:03:28;;;;;;;4.78;4.32;;;2.40;99.90;;;;;;6158645;23;19997;-81
2020/12/07 03:05:53;;;;;;;5.03;4.57;;;2.40;99.90;;;;;;6132035;23;20069;-81
2020/12/07 03:08:19;;;;;;;4.68;4.28;;;2.40;99.90;;;;;;6131479;23;20001;-82
2020/12/07 03:10:45;;;;;;;4.68;4.28;;;2.30;99.90;;;;;;6158403;23;20456;-80
2020/12/07 03:13:10;;;;;;;6.57;4.10;;;2.30;99.90;;;;;;6158716;23;20048;-81
2020/12/07 03:15:36;;;;;;;4.88;4.20;;;2.10;99.90;;;;;;6158476;23;20504;-82
2020/12/07 03:18:02;;;;;;;5.10;4.57;;;2.00;99.90;;;;;;6158709;23;20374;-82
2020/12/07 03:20:27;;;;;;;5.47;4.93;;;2.00;99.90;;;;;;6131858;23;20010;-81
2020/12/07 03:22:53;;;;;;;5.05;4.55;;;1.90;99.90;;;;;;6132159;23;20014;-80
2020/12/07 03:25:19;;;;;;;4.93;4.00;;;1.90;99.90;;;;;;6131908;23;20006;-81
2020/12/07 03:27:44;;;;;;;4.18;3.28;;;1.90;99.90;;;;;;6157945;23;20005;-81
2020/12/07 03:30:10;;;;;;;4.53;3.92;;;1.90;99.90;;;;;;6131925;23;20060;-80
2020/12/07 03:32:36;;;;;;;4.13;3.72;;;2.00;99.90;;;;;;6131672;23;20433;-84
2020/12/07 03:35:01;;;;;;;4.63;4.20;;;2.00;99.90;;;;;;6132316;23;20108;-81
2020/12/07 03:37:27;;;;;;;4.30;3.90;;;2.00;99.90;;;;;;6132469;23;20026;-81
2020/12/07 03:39:53;;;;;;;4.78;4.15;;;2.00;99.90;;;;;;6158395;23;20013;-79
2020/12/07 03:42:18;;;;;;;5.03;4.50;;;2.00;99.90;;;;;;6157264;23;20109;-79
2020/12/07 03:44:44;;;;;;;5.72;4.72;;;2.00;99.90;;;;;;6158171;23;19998;-82
2020/12/07 03:47:12;;;;;;;5.07;4.57;;;2.00;99.90;;;;;;6131907;23;20454;-81
2020/12/07 03:49:38;;;;;;;6.00;5.18;;;2.00;99.90;;;;;;6132238;23;20048;-84
2020/12/07 03:52:04;;;;;;;5.90;5.18;;;2.00;99.90;;;;;;6159610;23;20057;-82
2020/12/07 03:54:29;;;;;;;4.65;4.25;;;1.90;99.90;;;;;;6159798;23;20017;-81
2020/12/07 03:56:55;;;;;;;5.35;4.10;;;1.90;99.90;;;;;;6136252;23;20076;-81
2020/12/07 03:59:21;;;;;;;6.00;4.88;;;1.80;99.90;;;;;;6135716;23;20097;-83
2020/12/07 04:01:50;;;;;;;5.45;4.88;;;1.80;99.90;;;;;;6139404;23;20006;-85
2020/12/07 04:04:20;;;;;;;4.70;3.78;;;1.80;99.90;;;;;;6166118;23;20418;-83
2020/12/07 04:06:46;;;;;;;6.00;5.05;;;1.80;99.90;;;;;;6135602;23;20021;-84
2020/12/07 04:09:12;;;;;;;6.50;5.85;;;1.80;99.90;;;;;;6135970;23;20009;-83
2020/12/07 04:11:38;;;;;;;5.57;4.57;;;1.80;99.90;;;;;;6135581;23;20032;-82
2020/12/07 04:14:04;;;;;;;6.10;4.75;;;1.90;99.90;;;;;;6135674;23;20342;-83
2020/12/07 04:16:29;;;;;;;4.53;4.05;;;1.90;99.90;;;;;;6135251;23;20005;-82
2020/12/07 04:18:58;;;;;;;4.60;4.10;;;1.80;99.90;;;;;;6134786;23;20013;-81
2020/12/07 04:21:24;;;;;;;5.07;4.57;;;1.80;99.90;;;;;;6134766;23;20147;-83
2020/12/07 04:23:49;;;;;;;7.40;3.60;;;1.80;99.90;;;;;;6135621;23;20445;-82
2020/12/07 04:26:15;;;;;;;3.40;3.08;;;1.70;99.90;;;;;;6161127;23;20024;-84
2020/12/07 04:28:41;;;;;;;5.32;4.35;;;1.70;99.90;;;;;;6135699;23;20005;-83
2020/12/07 04:31:07;;;;;;;4.85;3.97;;;1.60;99.90;;;;;;6135083;23;20002;-83
2020/12/07 04:33:32;;;;;;;4.60;3.50;;;1.60;99.90;;;;;;6134919;23;20006;-83
2020/12/07 04:35:58;;;;;;;3.72;3.33;;;1.60;99.90;;;;;;6134543;23;20016;-83
2020/12/07 04:38:24;;;;;;;3.28;2.92;;;1.60;99.90;;;;;;6135439;23;20009;-82
2020/12/07 04:40:50;;;;;;;4.55;3.80;;;1.60;99.90;;;;;;6143867;23;20077;-84
2020/12/07 04:43:17;;;;;;;4.30;3.75;;;1.50;99.90;;;;;;6143277;23;20006;-84
2020/12/07 04:45:43;;;;;;;4.43;3.80;;;1.60;99.90;;;;;;6148314;23;20009;-84
2020/12/07 04:48:11;;;;;;;4.05;3.65;;;1.60;99.90;;;;;;6178246;23;19986;-83
2020/12/07 04:50:37;;;;;;;4.50;3.25;;;1.70;99.90;;;;;;6178547;23;20066;-83
2020/12/07 04:53:03;;;;;;;2.90;2.70;;;1.80;99.90;;;;;;6152866;23;20065;-83
2020/12/07 04:55:29;;;;;;;3.95;3.22;;;1.70;99.90;;;;;;6180459;23;20012;-80
2020/12/07 04:57:55;;;;;;;3.60;2.78;;;1.70;99.90;;;;;;6151460;23;19989;-82
2020/12/07 05:00:25;;;;;;;2.45;2.25;;;1.80;99.90;;;;;;6149387;23;20029;-81
2020/12/07 05:02:53;;;;;;;2.13;1.92;;;1.80;99.90;;;;;;6176882;23;19997;-81
2020/12/07 05:05:21;;;;;;;2.60;2.40;;;1.80;99.90;;;;;;6151421;23;20036;-82
2020/12/07 05:07:49;;;;;;;1.67;1.58;;;1.90;99.90;;;;;;6145558;23;20006;-82
2020/12/07 05:10:20;;;;;;;2.33;2.13;;;1.90;99.90;;;;;;6143623;23;20040;-82
2020/12/07 05:12:50;;;;;;;2.65;2.45;;;2.00;99.90;;;;;;6141787;23;19998;-82
2020/12/07 05:15:16;;;;;;;2.75;2.40;;;2.10;99.90;;;;;;6141898;23;20005;-81
2020/12/07 05:17:44;;;;;;;2.22;2.03;;;2.00;99.90;;;;;;6137631;23;20056;-81
2020/12/07 05:20:09;;;;;;;3.78;3.40;;;2.10;99.90;;;;;;6137206;23;20340;-82
2020/12/07 05:22:39;;;;;;;3.05;2.75;;;2.00;99.90;;;;;;6162491;23;20001;-81
2020/12/07 05:25:06;;;;;;;2.95;2.75;;;1.90;99.90;;;;;;6161548;23;20057;-81
2020/12/07 05:27:34;;;;;;;2.97;2.50;;;1.90;99.90;;;;;;6139530;23;20006;-80
2020/12/07 05:32:36;;;;;;;2.97;2.70;;;1.90;99.90;;;;;;6160562;23;20008;-81
2020/12/07 05:35:24;;;;;;;2.75;2.45;;;1.80;99.90;;;;;;6160032;23;20052;-84
2020/12/07 05:37:50;;;;;;;2.42;2.22;;;1.90;99.90;;;;;;6134549;23;20005;-81
2020/12/07 05:40:16;;;;;;;2.55;2.35;;;1.90;99.90;;;;;;6110435;23;20010;-80
2020/12/07 05:42:42;;;;;;;2.75;2.47;;;1.90;99.90;;;;;;6161788;23;20072;-82
2020/12/07 05:45:12;;;;;;;4.40;2.17;;;1.90;99.90;;;;;;6167322;23;20013;-78
2020/12/07 05:47:40;;;;;;;2.72;2.53;;;1.90;99.90;;;;;;6152188;23;20005;-80
2020/12/07 05:50:11;;;;;;;2.85;2.65;;;1.80;99.90;;;;;;6140594;23;20394;-81
2020/12/07 05:52:51;;;;;;;2.83;2.58;;;1.70;99.90;;;;;;6110810;23;20076;-81
2020/12/07 05:55:18;;;;;;;3.20;2.90;;;1.70;99.90;;;;;;6159379;23;20017;-81
2020/12/07 05:57:56;;;;;;;3.13;2.83;;;1.70;99.90;;;;;;6134261;23;20041;-81
2020/12/07 06:00:25;;;;;;;2.58;2.38;;;1.60;99.90;;;;;;6133866;23;20009;-82
2020/12/07 06:02:53;;;;;;;2.60;2.40;;;1.60;99.90;;;;;;6160900;23;20005;-83
2020/12/07 06:05:20;;;;;;;3.30;2.70;;;1.60;99.90;;;;;;6160745;23;20001;-81
2020/12/07 06:07:57;;;;;;;4.18;2.63;;;1.60;99.90;;;;;;6160347;23;20097;-81
2020/12/07 06:10:30;;;;;;;1.88;1.77;;;1.60;99.90;;;;;;6160571;23;20398;-82
2020/12/07 06:12:58;;;;;;;4.68;3.17;;;1.60;99.90;;;;;;6134311;23;19997;-83
2020/12/07 06:15:26;;;;;;;3.30;2.95;;;1.60;99.90;;;;;;6160849;23;20460;-85
2020/12/07 06:17:52;;;;;;;4.65;3.50;;;1.60;99.90;;;;;;6159661;23;20093;-81
2020/12/07 06:20:32;;;;;;;3.92;2.50;;;1.60;99.90;;;;;;6160292;23;20001;-83
2020/12/07 06:23:01;;;;;;;2.80;2.60;;;1.60;99.90;;;;;;6133743;23;20093;-81
2020/12/07 06:25:33;;;;;;;9.43;5.60;;;1.60;99.90;;;;;;6160219;23;20097;-81
2020/12/07 06:28:01;;;;;;;6.13;3.80;;;1.50;99.90;;;;;;6159809;23;20005;-81
2020/12/07 06:30:32;;;;;;;9.27;6.07;;;1.50;99.90;;;;;;6134985;23;20037;-82
2020/12/07 06:33:06;;;;;;;50.05;23.67;;;1.50;99.90;;;;;;6133532;23;20397;-86
2020/12/07 06:35:39;;;;;;;35.25;18.20;;;1.50;99.90;;;;;;6160690;23;20002;-83
2020/12/07 06:38:05;;;;;;;21.65;11.15;;;1.50;99.90;;;;;;6134307;23;20303;-85
2020/12/07 06:40:34;;;;;;;15.40;7.65;;;1.50;99.90;;;;;;6159629;23;20416;-82
2020/12/07 06:43:28;;;;;;;8.95;4.95;;;1.50;99.90;;;;;;6134638;23;20010;-82
2020/12/07 06:45:54;;;;;;;4.88;3.08;;;1.50;99.90;;;;;;6162240;23;20005;-81
2020/12/07 06:48:23;;;;;;;4.75;2.90;;;1.50;99.90;;;;;;6169067;23;19997;-82
2020/12/07 06:50:50;;;;;;;3.25;2.78;;;1.50;99.90;;;;;;6146430;23;20016;-81
2020/12/07 06:56:34;;;;;;;2.92;2.20;;;1.50;99.90;;;;;;6166147;23;20025;-86
2020/12/07 07:00:15;;;;;;;3.60;2.95;;;1.60;99.90;;;;;;6010978;23;20086;-86
2020/12/07 07:03:29;;;;;;;2.83;2.00;;;1.60;99.90;;;;;;5949283;23;20008;-85
2020/12/07 07:07:00;;;;;;;2.63;1.83;;;1.60;99.90;;;;;;5916024;23;20024;-86
2020/12/07 07:10:09;;;;;;;1.92;1.83;;;1.70;99.90;;;;;;6041760;23;20011;-86
2020/12/07 07:19:49;;;;;;;2.15;1.95;;;1.80;99.90;;;;;;6071330;23;20014;-84
2020/12/07 07:22:58;;;;;;;1.40;1.30;;;1.80;99.90;;;;;;6047077;23;20086;-85
2020/12/07 07:29:59;;;;;;;1.55;1.40;;;1.80;99.90;;;;;;6072344;23;20411;-86
2020/12/07 07:33:05;;;;;;;2.28;1.58;;;1.80;99.90;;;;;;5994210;23;20019;-86
2020/12/07 07:39:55;;;;;;;1.50;1.40;;;1.80;99.90;;;;;;6016190;23;20060;-87
2020/12/07 07:43:14;;;;;;;1.92;1.52;;;1.70;99.90;;;;;;6002503;23;20490;-86
2020/12/07 07:46:47;;;;;;;2.85;1.90;;;1.70;99.90;;;;;;5987174;24;20016;-86
2020/12/07 08:17:14;;;;;;;4.25;3.05;;;2.20;99.90;;;;;;6002934;24;20077;-85
2020/12/07 08:20:47;;;;;;;7.47;3.47;;;2.30;99.90;;;;;;6015704;23;20015;-85
2020/12/07 08:27:47;;;;;;;4.65;3.92;;;2.40;99.90;;;;;;6047802;23;20022;-86
2020/12/07 08:31:18;;;;;;;4.57;3.00;;;2.50;99.90;;;;;;6019334;23;20022;-85
2020/12/07 08:34:47;;;;;;;2.97;2.45;;;2.60;99.90;;;;;;5962475;24;20110;-85
2020/12/07 08:41:32;;;;;;;5.68;3.45;;;2.80;99.90;;;;;;5840753;24;20043;-85
2020/12/07 08:44:45;;;;;;;2.85;2.30;;;2.80;99.90;;;;;;5774618;24;20016;-86
2020/12/07 08:48:16;;;;;;;2.03;1.83;;;2.90;99.90;;;;;;5771875;24;20413;-86
2020/12/07 08:55:05;;;;;;;2.10;1.60;;;3.10;99.90;;;;;;5807064;24;20422;-87
2020/12/07 08:58:34;;;;;;;2.20;1.48;;;3.20;99.90;;;;;;5804320;24;20073;-86
2020/12/07 09:12:52;;;;;;;1.55;1.13;;;3.80;99.10;;;;;;5812779;24;20062;-86
2020/12/07 09:16:16;;;;;;;0.80;0.80;;;3.90;98.60;;;;;;5818191;24;20009;-85
2020/12/07 09:22:47;;;;;;;0.98;0.80;;;4.10;96.60;;;;;;5846712;24;20014;-87
2020/12/07 09:38:25;;;;;;;0.60;0.60;;;4.60;94.30;;;;;;6026089;23;20026;-85
2020/12/07 09:45:57;;;;;;;0.40;0.40;;;4.80;93.40;;;;;;5960274;24;20104;-86
2020/12/07 09:53:08;;;;;;;1.15;0.52;;;5.20;92.50;;;;;;5930971;24;20070;-86
2020/12/07 09:56:24;;;;;;;0.43;0.43;;;5.40;92.00;;;;;;5882616;24;20068;-86
2020/12/07 10:05:42;;;;;;;0.40;0.40;;;5.70;90.00;;;;;;5971336;23;20052;-86
2020/12/07 10:08:11;;;;;;;0.55;0.55;;;5.80;89.60;;;;;;6015288;23;20003;-85
2020/12/07 10:11:38;;;;;;;0.45;0.45;;;5.70;89.20;;;;;;6056729;23;20003;-86
2020/12/07 10:15:18;;;;;;;0.95;0.80;;;5.80;90.50;;;;;;6102335;23;20018;-85
2020/12/07 10:19:11;;;;;;;1.48;0.80;;;5.90;89.60;;;;;;5924500;24;20395;-86
2020/12/07 10:25:45;;;;;;;;;;;;;;;;;;;;;
2020/12/07 10:28:57;;;;;;;1.45;0.70;;;5.80;88.90;;;;;;5905099;24;20080;-86
2020/12/07 10:32:12;;;;;;;0.57;0.50;;;5.70;89.00;;;;;;5844567;24;20507;-85
2020/12/07 10:36:20;;;;;;;2.55;0.60;;;5.70;88.80;;;;;;5862266;24;20018;-85
2020/12/07 10:39:27;;;;;;;0.50;0.50;;;5.50;89.50;;;;;;5739197;25;20012;-86
2020/12/07 10:46:37;;;;;;;0.20;0.20;;;5.30;89.30;;;;;;5765570;24;20030;-85
2020/12/07 10:50:15;;;;;;;0.40;0.40;;;5.30;89.30;;;;;;5916732;23;19993;-84
2020/12/07 11:06:38;;;;;;;0.35;0.28;;;5.20;90.10;;;;;;5959697;24;20023;-86
2020/12/07 11:16:36;;;;;;;0.55;0.55;;;5.10;89.70;;;;;;5923206;24;20031;-85
2020/12/07 11:20:17;;;;;;;0.70;0.50;;;5.10;90.10;;;;;;5956294;24;20004;-84
2020/12/07 11:23:46;;;;;;;1.00;0.40;;;5.10;89.30;;;;;;5948025;23;20030;-85
2020/12/07 11:27:26;;;;;;;0.30;0.30;;;5.00;89.50;;;;;;6030564;23;20036;-85
2020/12/07 11:30:24;;;;;;;1.35;0.73;;;5.10;90.10;;;;;;5996000;24;20004;-86
2020/12/07 11:57:47;;;;;;;0.55;0.50;;;5.30;86.00;;;;;;6000471;23;20063;-86
2020/12/07 12:01:16;;;;;;;0.93;0.52;;;5.40;87.20;;;;;;5909694;24;20016;-86
2020/12/07 12:15:16;;;;;;;0.90;0.40;;;5.80;85.10;;;;;;5917592;24;20040;-85
2020/12/07 12:18:30;;;;;;;0.57;0.40;;;5.90;84.90;;;;;;5919359;24;20009;-86
2020/12/07 12:39:27;;;;;;;0.35;0.35;;;;;;;;;;5842086;24;20045;-85
2020/12/07 12:42:18;;;;;;;0.90;0.63;;;5.40;85.30;;;;;;5815481;24;20041;-84
2020/12/07 12:45:29;;;;;;;0.80;0.60;;;5.40;87.20;;;;;;5803295;24;20024;-84
2020/12/07 12:49:05;;;;;;;0.77;0.55;;;5.60;85.90;;;;;;5786280;24;20008;-84
2020/12/07 14:45:29;;;;;;;0.38;0.22;;;4.90;85.40;;;;;;6216928;23;20052;-85
2020/12/07 14:48:02;;;;;;;0.95;0.30;;;4.90;85.80;;;;;;6165461;23;20433;-86
2020/12/07 14:50:39;;;;;;;0.32;0.30;;;5.00;86.10;;;;;;6131478;23;20018;-85
2020/12/07 14:56:16;;;;;;;2.17;0.70;;;5.00;85.80;;;;;;6151770;23;20050;-82
2020/12/07 15:14:34;;;;;;;2.03;0.80;;;4.70;86.90;;;;;;6161415;23;19998;-85
2020/12/07 15:17:00;;;;;;;0.88;0.47;;;4.60;87.90;;;;;;6126297;23;20025;-84
2020/12/07 15:19:26;;;;;;;1.40;0.70;;;4.50;88.80;;;;;;6126597;23;20117;-84
2020/12/07 15:21:55;;;;;;;1.58;0.73;;;4.50;89.40;;;;;;6152291;23;20041;-82
2020/12/07 15:24:21;;;;;;;1.10;0.60;;;4.50;90.00;;;;;;6126427;23;20053;-84
2020/12/07 15:26:46;;;;;;;0.50;0.43;;;4.50;90.20;;;;;;6126437;23;20053;-85
2020/12/07 15:29:13;;;;;;;0.40;0.40;;;4.50;90.30;;;;;;6152013;23;19990;-84
2020/12/07 15:31:39;;;;;;;0.43;0.43;;;4.50;90.40;;;;;;6133768;23;20018;-85
2020/12/07 15:34:05;;;;;;;1.98;0.93;;;4.40;90.50;;;;;;6132658;23;20117;-85
2020/12/07 15:36:31;;;;;;;0.80;0.60;;;4.40;90.30;;;;;;6135659;23;20426;-85
2020/12/07 15:38:57;;;;;;;1.38;0.73;;;;;;;;;;6136209;23;20054;-85
2020/12/07 15:41:23;;;;;;;0.45;0.45;;;4.10;90.40;;;;;;6134633;23;20002;-85
2020/12/07 15:43:49;;;;;;;4.30;0.85;;;4.00;90.80;;;;;;6110787;23;20012;-85
2020/12/07 15:46:22;;;;;;;1.17;0.60;;;3.90;91.10;;;;;;6108516;23;20024;-85
2020/12/07 15:48:48;;;;;;;0.70;0.47;;;3.80;91.40;;;;;;6132712;23;19998;-85
2020/12/07 15:51:19;;;;;;;0.63;0.50;;;3.70;91.60;;;;;;6110954;23;20141;-85
2020/12/07 15:53:45;;;;;;;0.80;0.60;;;3.70;91.90;;;;;;6111210;23;19998;-85
2020/12/07 15:56:11;;;;;;;0.32;0.32;;;3.70;92.00;;;;;;6111717;23;20073;-84
2020/12/07 15:58:38;;;;;;;0.50;0.40;;;3.70;92.10;;;;;;6136773;23;20002;-84
2020/12/07 16:01:05;;;;;;;0.47;0.40;;;3.70;92.30;;;;;;6136035;23;20009;-84
2020/12/07 16:03:30;;;;;;;1.52;0.90;;;3.70;92.40;;;;;;6136525;23;20029;-84
2020/12/07 16:05:56;;;;;;;4.15;1.00;;;3.70;92.50;;;;;;6136994;23;19998;-84
2020/12/07 16:08:22;;;;;;;1.23;0.60;;;3.80;92.60;;;;;;6135888;23;20046;-84
2020/12/07 16:10:48;;;;;;;1.52;0.68;;;3.80;92.60;;;;;;6136331;23;19998;-84
2020/12/07 16:13:13;;;;;;;1.35;0.70;;;3.80;92.70;;;;;;6144686;23;20061;-85
2020/12/07 16:15:39;;;;;;;2.33;0.93;;;3.90;92.70;;;;;;6149168;23;20353;-83
2020/12/07 16:18:05;;;;;;;0.68;0.50;;;3.90;92.60;;;;;;6119672;23;20354;-84
2020/12/07 16:20:31;;;;;;;4.47;1.10;;;4.00;92.60;;;;;;6144491;23;20101;-85
2020/12/07 16:22:56;;;;;;;0.60;0.60;;;4.00;92.60;;;;;;6140988;23;20097;-85
2020/12/07 16:25:22;;;;;;;2.10;0.70;;;4.00;92.60;;;;;;6114950;23;20458;-85
2020/12/07 16:27:48;;;;;;;2.30;0.90;;;4.00;92.70;;;;;;6114409;23;20017;-85
2020/12/07 16:30:14;;;;;;;1.25;0.65;;;4.00;92.90;;;;;;6115718;23;20017;-85
2020/12/07 16:32:40;;;;;;;2.10;1.10;;;4.00;93.10;;;;;;6113710;23;20069;-85
2020/12/07 16:35:06;;;;;;;3.60;1.50;;;4.00;93.30;;;;;;6113759;23;20002;-85
2020/12/07 16:37:33;;;;;;;1.85;1.13;;;3.90;93.80;;;;;;6137793;23;20005;-85
2020/12/07 16:39:59;;;;;;;1.13;1.02;;;3.90;94.10;;;;;;6140809;23;20057;-85
2020/12/07 16:42:25;;;;;;;1.85;1.33;;;3.90;94.40;;;;;;6139711;23;20006;-85
2020/12/07 16:44:51;;;;;;;1.75;1.63;;;3.80;94.50;;;;;;6115143;23;19994;-85
2020/12/07 16:47:16;;;;;;;1.98;1.58;;;3.80;94.70;;;;;;6142686;23;20029;-84
2020/12/07 16:49:42;;;;;;;2.38;1.60;;;3.70;95.00;;;;;;6149803;23;19994;-83
2020/12/07 16:52:08;;;;;;;3.17;1.95;;;3.60;95.30;;;;;;6151728;23;20001;-84
2020/12/07 16:54:34;;;;;;;2.63;1.88;;;3.50;95.70;;;;;;6117048;23;20033;-84
2020/12/07 16:56:59;;;;;;;5.90;2.20;;;3.40;96.00;;;;;;6139213;23;20299;-84
2020/12/07 16:59:25;;;;;;;3.38;2.45;;;3.30;96.40;;;;;;6140655;23;20002;-83
2020/12/07 17:01:51;;;;;;;2.85;2.45;;;3.20;96.80;;;;;;6141937;23;19998;-84
2020/12/07 17:04:16;;;;;;;4.00;2.72;;;3.10;97.20;;;;;;6114797;23;20006;-83
2020/12/07 17:06:42;;;;;;;3.05;2.67;;;3.00;97.60;;;;;;6114277;23;20006;-84
2020/12/07 17:09:08;;;;;;;6.93;3.33;;;2.90;98.00;;;;;;6114628;23;20093;-83
2020/12/07 17:11:35;;;;;;;3.25;2.67;;;2.80;98.40;;;;;;6114039;23;20013;-83
2020/12/07 17:14:01;;;;;;;2.70;2.28;;;2.70;98.60;;;;;;6140791;23;20526;-85
2020/12/07 17:16:27;;;;;;;3.38;2.60;;;2.70;98.80;;;;;;6137194;23;20060;-83
2020/12/07 17:18:53;;;;;;;4.88;3.60;;;2.70;99.00;;;;;;6139632;23;20006;-83
2020/12/07 17:21:31;;;;;;;5.20;3.97;;;2.60;99.20;;;;;;6114193;23;20078;-84
2020/12/07 17:23:58;;;;;;;7.00;4.65;;;2.50;99.40;;;;;;6140143;23;20350;-84
2020/12/07 17:26:24;;;;;;;5.70;4.53;;;2.50;99.60;;;;;;6137742;23;20010;-83
2020/12/07 17:28:50;;;;;;;5.65;4.07;;;2.40;99.70;;;;;;6140348;23;20021;-84
2020/12/07 17:31:18;;;;;;;5.88;4.43;;;2.40;99.80;;;;;;6139247;23;20002;-83
2020/12/07 17:33:43;;;;;;;6.53;4.05;;;2.30;99.90;;;;;;6140552;23;19998;-84
2020/12/07 17:36:09;;;;;;;9.70;6.40;;;2.20;99.90;;;;;;6140904;23;20036;-84
2020/12/07 17:38:35;;;;;;;9.00;6.05;;;2.20;99.90;;;;;;6140313;23;20012;-84
2020/12/07 17:41:01;;;;;;;8.07;6.18;;;2.30;99.90;;;;;;6140746;23;20001;-83
2020/12/07 17:43:27;;;;;;;7.80;5.70;;;2.20;99.90;;;;;;6139746;23;20070;-83
2020/12/07 17:45:52;;;;;;;6.25;4.60;;;2.20;99.90;;;;;;6139339;23;20009;-85
2020/12/07 17:48:24;;;;;;;4.43;3.83;;;2.20;99.90;;;;;;6138055;23;20033;-85
2020/12/07 17:50:50;;;;;;;5.57;4.40;;;2.30;99.90;;;;;;6112900;23;20002;-85
2020/12/07 17:53:19;;;;;;;5.00;3.30;;;2.30;99.90;;;;;;6112299;23;20002;-85
2020/12/07 17:55:45;;;;;;;5.63;4.03;;;2.20;99.90;;;;;;6137391;23;20012;-85
2020/12/07 17:58:11;;;;;;;4.93;3.80;;;2.20;99.90;;;;;;6113675;23;20009;-85
2020/12/07 18:00:39;;;;;;;6.15;3.58;;;2.20;99.90;;;;;;6143408;23;20298;-84
2020/12/07 18:03:05;;;;;;;4.82;3.83;;;2.20;99.90;;;;;;6113803;23;20019;-85
2020/12/07 18:05:31;;;;;;;5.07;3.72;;;2.20;99.90;;;;;;6137464;23;20006;-85
2020/12/07 18:07:56;;;;;;;4.97;3.53;;;2.10;99.90;;;;;;6111612;23;20060;-85
2020/12/07 18:10:22;;;;;;;5.93;4.95;;;2.10;99.90;;;;;;6111057;23;20426;-85
2020/12/07 18:12:47;;;;;;;8.48;5.43;;;2.00;99.90;;;;;;6111628;23;20002;-85
2020/12/07 18:15:14;;;;;;;6.57;5.47;;;1.90;99.90;;;;;;6111118;23;20058;-85
2020/12/07 18:17:40;;;;;;;5.28;4.38;;;1.90;99.90;;;;;;6111626;23;20005;-85
2020/12/07 18:20:06;;;;;;;6.07;4.40;;;1.90;99.90;;;;;;6137113;23;20016;-85
2020/12/07 18:22:33;;;;;;;5.63;4.82;;;1.80;99.90;;;;;;6112038;23;20032;-85
2020/12/07 18:25:00;;;;;;;7.45;4.95;;;1.80;99.90;;;;;;6136442;23;20001;-86
2020/12/07 18:27:26;;;;;;;6.50;4.93;;;1.80;99.90;;;;;;6137498;23;20002;-85
2020/12/07 18:29:51;;;;;;;9.68;6.97;;;1.70;99.90;;;;;;6138619;23;20028;-85
2020/12/07 18:32:36;;;;;;;10.05;6.28;;;1.70;99.90;;;;;;6137106;23;20014;-84
2020/12/07 18:35:01;;;;;;;8.18;5.57;;;1.70;99.90;;;;;;6115815;23;20006;-84
2020/12/07 18:37:50;;;;;;;8.73;6.50;;;1.60;99.90;;;;;;6108509;23;20445;-85
2020/12/07 18:40:51;;;;;;;7.72;6.03;;;1.60;99.90;;;;;;6133000;23;20013;-84
2020/12/07 18:43:19;;;;;;;8.55;6.10;;;1.60;99.90;;;;;;6110809;23;20041;-85
2020/12/07 18:45:45;;;;;;;8.25;6.28;;;1.60;99.90;;;;;;6111459;23;20108;-85
2020/12/07 18:48:28;;;;;;;12.52;7.90;;;1.60;99.90;;;;;;6137331;23;20002;-85
2020/12/07 18:51:00;;;;;;;10.50;6.72;;;1.50;99.90;;;;;;6110601;23;20002;-85
2020/12/07 18:53:37;;;;;;;9.13;6.43;;;;;;;;;;6133884;23;20002;-85
2020/12/07 18:56:11;;;;;;;9.88;7.35;;;1.50;99.90;;;;;;6133379;23;20013;-84
2020/12/07 18:58:59;;;;;;;8.40;6.53;;;1.40;99.90;;;;;;6134607;23;20010;-85
2020/12/07 19:01:36;;;;;;;7.82;6.10;;;1.50;99.90;;;;;;6136404;23;20089;-85
2020/12/07 19:04:19;;;;;;;10.27;6.70;;;1.40;99.90;;;;;;6112100;23;20159;-85
2020/12/07 19:07:13;;;;;;;8.70;6.65;;;1.40;99.90;;;;;;6111743;23;20048;-85
2020/12/07 19:10:17;;;;;;;8.15;5.80;;;1.50;99.90;;;;;;6110964;23;20013;-85
2020/12/07 19:12:58;;;;;;;7.88;5.68;;;1.40;99.90;;;;;;6135453;23;20016;-84
2020/12/07 19:15:27;;;;;;;8.73;6.75;;;1.50;99.90;;;;;;6118529;23;20013;-85
2020/12/07 19:17:53;;;;;;;9.90;6.82;;;1.50;99.90;;;;;;6136253;23;20318;-85
2020/12/07 19:20:18;;;;;;;9.10;5.53;;;1.50;99.90;;;;;;6111170;23;20105;-85
2020/12/07 19:22:45;;;;;;;8.88;6.38;;;1.50;99.90;;;;;;6110176;23;20005;-85
2020/12/07 19:25:10;;;;;;;9.27;6.68;;;1.40;99.90;;;;;;6110650;23;20033;-85